Language: 


Des rapports , des résumés tant et plus, au choix de chacun....


Données statistiques de la station
Quotidien Rapport Janvier 30, 2017 Unités:  Métrique    Anglais   les deux
« Précédent Jour
Suivant Jour »
Quotidien Hebdomadaire Mensuel Annuel Actuel
  Haut: Bas: Moyen:
Température: 8.7 °C 5.7 °C 7.1 °C
Pt de rosée: 8.3 °C 5.4 °C 6.7 °C
Humidité: 98 % 97 % 97 %
Vitesse du vent: 23.3 km/h 0.0 km/h 6.4 km/h
Rafales: 31.7 km/h - -
Vent:- - SW
Pression: 1013.1 hPa 1008.0 hPa -
Précipitation: 2.5 mm    
Historical Graphs
 
 
Données statistiques pour Janvier 30, 2017
Heure Température Point de rosée Pression Vent Vitesse du vent Refales Humidité Pluie (taux horaire)
00:03 6.4 °C 6.2 °C 1011.1 hPa SSW 19.8 km/h 23.8 km/h 98 % 2.0 mm
00:08 6.6 °C 6.3 °C 1011.1 hPa South 16.9 km/h 27.7 km/h 98 % 2.0 mm
00:13 6.6 °C 6.3 °C 1011.1 hPa SSW 16.9 km/h 27.7 km/h 98 % 2.3 mm
00:18 6.6 °C 6.3 °C 1011.1 hPa South 16.9 km/h 23.8 km/h 98 % 2.3 mm
00:23 6.6 °C 6.3 °C 1010.0 hPa SSE 16.9 km/h 22.7 km/h 98 % 1.5 mm
00:28 6.7 °C 6.4 °C 1010.0 hPa South 13.0 km/h 23.3 km/h 98 % 1.5 mm
00:33 6.7 °C 6.4 °C 1010.0 hPa SW 10.1 km/h 23.3 km/h 98 % 1.5 mm
00:38 6.7 °C 6.4 °C 1010.0 hPa SSW 13.7 km/h 27.4 km/h 98 % 1.8 mm
00:43 6.7 °C 6.4 °C 1010.0 hPa SSW 13.7 km/h 27.4 km/h 98 % 1.8 mm
00:48 6.8 °C 6.4 °C 1010.0 hPa SSW 12.2 km/h 23.0 km/h 98 % 1.8 mm
00:53 6.8 °C 6.6 °C 1010.0 hPa South 14.0 km/h 27.7 km/h 98 % 1.8 mm
00:58 6.8 °C 6.6 °C 1010.0 hPa South 16.6 km/h 28.0 km/h 98 % 1.8 mm
01:03 6.8 °C 6.6 °C 1010.0 hPa SSW 9.0 km/h 28.0 km/h 98 % 0.8 mm
01:08 6.9 °C 6.7 °C 1010.0 hPa South 10.1 km/h 20.6 km/h 98 % 0.8 mm
01:13 6.9 °C 6.7 °C 1010.0 hPa SSW 23.3 km/h 23.3 km/h 98 % 0.3 mm
01:18 7.1 °C 6.8 °C 1010.0 hPa SSW 21.2 km/h 23.3 km/h 98 % 0.3 mm
01:23 7.1 °C 6.8 °C 1009.0 hPa WSW 17.7 km/h 23.8 km/h 98 % 0.3 mm
01:28 7.1 °C 6.8 °C 1009.0 hPa SSW 12.6 km/h 23.8 km/h 98 % 0.3 mm
01:33 7.1 °C 6.8 °C 1009.0 hPa South 15.8 km/h 21.2 km/h 98 % 0.0 mm
01:38 7.1 °C 6.8 °C 1009.0 hPa SSW 17.7 km/h 25.6 km/h 98 % 0.0 mm
01:43 7.2 °C 6.8 °C 1009.0 hPa South 16.9 km/h 27.4 km/h 98 % 0.0 mm
01:48 7.2 °C 6.8 °C 1009.0 hPa South 9.3 km/h 31.7 km/h 98 % 0.0 mm
01:53 7.2 °C 6.7 °C 1009.0 hPa South 17.2 km/h 31.7 km/h 97 % 0.0 mm
01:58 7.2 °C 6.7 °C 1009.0 hPa SSW 15.8 km/h 28.0 km/h 97 % 0.0 mm
02:03 7.2 °C 6.7 °C 1009.0 hPa SW 16.9 km/h 24.5 km/h 97 % 0.0 mm
02:08 7.2 °C 6.7 °C 1009.0 hPa SSW 19.8 km/h 24.5 km/h 97 % 0.0 mm
02:13 7.2 °C 6.7 °C 1009.0 hPa SSW 20.6 km/h 24.5 km/h 97 % 0.0 mm
02:18 7.2 °C 6.7 °C 1009.0 hPa West 20.1 km/h 23.8 km/h 97 % 0.0 mm
02:23 7.2 °C 6.7 °C 1008.0 hPa SW 15.1 km/h 24.5 km/h 97 % 0.0 mm
02:28 7.2 °C 6.7 °C 1008.0 hPa SW 21.2 km/h 24.5 km/h 97 % 0.0 mm
02:33 7.2 °C 6.7 °C 1008.0 hPa SSW 16.9 km/h 27.4 km/h 97 % 0.0 mm
02:38 7.2 °C 6.7 °C 1008.0 hPa SSW 20.6 km/h 27.4 km/h 97 % 0.0 mm
02:43 7.2 °C 6.7 °C 1008.0 hPa SSW 20.9 km/h 24.5 km/h 97 % 0.0 mm
02:48 7.2 °C 6.7 °C 1008.0 hPa WSW 16.9 km/h 26.2 km/h 97 % 0.0 mm
02:53 7.3 °C 6.8 °C 1008.0 hPa WSW 20.6 km/h 26.2 km/h 97 % 0.0 mm
02:58 7.3 °C 6.8 °C 1008.0 hPa SW 17.7 km/h 24.5 km/h 97 % 0.0 mm
03:03 7.2 °C 6.7 °C 1008.0 hPa SW 9.7 km/h 23.8 km/h 97 % 0.0 mm
03:08 7.2 °C 6.7 °C 1009.0 hPa WSW 16.6 km/h 25.6 km/h 97 % 0.0 mm
03:13 7.2 °C 6.7 °C 1009.0 hPa WSW 16.3 km/h 25.6 km/h 97 % 0.0 mm
03:14 7.2 °C 6.7 °C 1009.0 hPa SSW 21.2 km/h 25.6 km/h 97 % 0.0 mm
03:19 7.2 °C 6.7 °C 1009.0 hPa SW 13.0 km/h 23.3 km/h 97 % 0.0 mm
03:24 7.2 °C 6.7 °C 1009.0 hPa SSW 16.6 km/h 21.2 km/h 97 % 0.0 mm
03:29 7.2 °C 6.7 °C 1009.0 hPa SSW 14.0 km/h 20.6 km/h 97 % 0.0 mm
03:34 7.2 °C 6.7 °C 1009.0 hPa SSW 16.6 km/h 20.6 km/h 97 % 0.0 mm
03:39 7.2 °C 6.7 °C 1009.0 hPa SSW 13.7 km/h 18.3 km/h 97 % 0.0 mm
03:44 7.2 °C 6.7 °C 1009.0 hPa WSW 10.1 km/h 20.9 km/h 97 % 0.0 mm
03:54 7.2 °C 6.7 °C 1009.0 hPa SSW 13.0 km/h 24.5 km/h 97 % 0.0 mm
04:04 7.3 °C 6.8 °C 1009.0 hPa SW 10.5 km/h 20.1 km/h 97 % 0.0 mm
04:09 7.3 °C 6.8 °C 1009.0 hPa SSW 13.7 km/h 18.0 km/h 97 % 0.0 mm
04:15 7.3 °C 6.8 °C 1009.0 hPa SSW 16.6 km/h 18.0 km/h 97 % 0.0 mm
04:20 7.3 °C 6.8 °C 1009.0 hPa SSW 9.3 km/h 17.7 km/h 97 % 0.0 mm
04:24 7.3 °C 6.8 °C 1009.0 hPa WSW 19.5 km/h 19.8 km/h 97 % 0.0 mm
04:25 7.3 °C 6.8 °C 1009.0 hPa SSW 10.5 km/h 19.8 km/h 97 % 0.0 mm
04:27 7.3 °C 6.8 °C 1009.0 hPa WSW 10.1 km/h 19.8 km/h 97 % 0.0 mm
04:28 7.3 °C 6.8 °C 1009.0 hPa SW 6.4 km/h 19.8 km/h 97 % 0.0 mm
04:32 7.3 °C 6.8 °C 1009.0 hPa SSW 10.5 km/h 19.8 km/h 97 % 0.0 mm
04:37 7.3 °C 6.8 °C 1008.0 hPa SW 12.6 km/h 17.7 km/h 97 % 0.0 mm
04:42 7.3 °C 6.8 °C 1008.0 hPa South 10.1 km/h 16.6 km/h 97 % 0.0 mm
04:47 7.3 °C 6.8 °C 1008.0 hPa SSW 13.0 km/h 16.3 km/h 97 % 0.0 mm
04:52 7.3 °C 6.8 °C 1008.0 hPa SW 9.3 km/h 16.3 km/h 97 % 0.0 mm
04:57 7.3 °C 6.8 °C 1008.0 hPa SSW 12.2 km/h 15.8 km/h 97 % 0.0 mm
05:02 7.3 °C 6.8 °C 1008.0 hPa South 15.8 km/h 20.9 km/h 97 % 0.0 mm
05:07 7.3 °C 6.8 °C 1009.0 hPa South 12.2 km/h 20.9 km/h 97 % 0.0 mm
05:12 7.3 °C 6.8 °C 1009.0 hPa SSW 10.1 km/h 17.7 km/h 97 % 0.0 mm
05:17 7.3 °C 6.8 °C 1009.0 hPa SSW 11.9 km/h 17.2 km/h 97 % 0.0 mm
05:27 7.3 °C 6.8 °C 1009.0 hPa SSW 7.9 km/h 17.2 km/h 97 % 0.0 mm
05:32 7.3 °C 6.8 °C 1009.0 hPa South 9.3 km/h 17.2 km/h 97 % 0.0 mm
05:37 7.3 °C 6.8 °C 1009.0 hPa SW 8.7 km/h 16.6 km/h 97 % 0.0 mm
05:42 7.3 °C 6.8 °C 1009.0 hPa SSW 10.5 km/h 16.9 km/h 97 % 0.0 mm
05:47 7.3 °C 6.8 °C 1009.0 hPa SW 9.0 km/h 16.9 km/h 97 % 0.0 mm
05:52 7.3 °C 6.8 °C 1009.0 hPa SSW 9.0 km/h 13.7 km/h 97 % 0.0 mm
05:57 7.2 °C 6.7 °C 1009.0 hPa SSW 7.9 km/h 13.7 km/h 97 % 0.0 mm
06:02 7.2 °C 6.7 °C 1009.0 hPa South 9.0 km/h 11.6 km/h 97 % 0.0 mm
06:07 7.2 °C 6.7 °C 1009.0 hPa South 3.2 km/h 9.3 km/h 97 % 0.0 mm
06:12 7.1 °C 6.6 °C 1009.0 hPa Calm   9.7 km/h 97 % 0.0 mm
06:17 7.1 °C 6.6 °C 1009.0 hPa SSW 6.1 km/h 13.7 km/h 97 % 0.0 mm
06:22 7.1 °C 6.6 °C 1008.0 hPa South 6.1 km/h 13.7 km/h 97 % 0.0 mm
06:27 6.9 °C 6.5 °C 1008.0 hPa SW 10.8 km/h 10.8 km/h 97 % 0.0 mm
06:32 6.9 °C 6.5 °C 1008.0 hPa SW 6.1 km/h 10.8 km/h 97 % 0.0 mm
06:37 6.9 °C 6.5 °C 1008.0 hPa WSW 6.9 km/h 10.5 km/h 97 % 0.0 mm
06:42 6.9 °C 6.5 °C 1008.0 hPa SSW 6.1 km/h 10.5 km/h 97 % 0.0 mm
06:47 6.9 °C 6.5 °C 1008.0 hPa Calm   9.0 km/h 97 % 0.0 mm
06:52 6.9 °C 6.5 °C 1008.0 hPa WSW 8.7 km/h 9.0 km/h 97 % 0.0 mm
06:57 6.9 °C 6.5 °C 1008.0 hPa SW 8.7 km/h 12.2 km/h 97 % 0.0 mm
07:02 7.1 °C 6.6 °C 1008.0 hPa SW 7.6 km/h 12.2 km/h 97 % 0.0 mm
07:07 7.1 °C 6.6 °C 1008.0 hPa South 5.5 km/h 10.5 km/h 97 % 0.0 mm
07:12 7.1 °C 6.6 °C 1008.0 hPa SSW 7.9 km/h 10.5 km/h 97 % 0.0 mm
07:17 7.1 °C 6.6 °C 1008.0 hPa South 6.9 km/h 10.5 km/h 97 % 0.0 mm
07:22 7.1 °C 6.6 °C 1008.0 hPa SW 4.3 km/h 10.1 km/h 97 % 0.0 mm
07:27 7.1 °C 6.6 °C 1008.0 hPa SW 5.8 km/h 10.1 km/h 97 % 0.0 mm
07:32 7.1 °C 6.6 °C 1008.0 hPa South 9.3 km/h 10.1 km/h 97 % 0.0 mm
07:37 7.1 °C 6.6 °C 1008.0 hPa SSW 5.0 km/h 10.1 km/h 97 % 0.0 mm
07:42 7.1 °C 6.6 °C 1008.0 hPa SSW 5.5 km/h 10.5 km/h 97 % 0.0 mm
07:47 7.1 °C 6.6 °C 1008.0 hPa SSW 6.4 km/h 10.5 km/h 97 % 0.0 mm
07:52 7.1 °C 6.6 °C 1009.0 hPa SW 4.7 km/h 10.5 km/h 97 % 0.0 mm
07:57 7.2 °C 6.7 °C 1009.0 hPa West 10.1 km/h 10.5 km/h 97 % 0.0 mm
08:02 7.2 °C 6.7 °C 1009.0 hPa SW 7.6 km/h 10.5 km/h 97 % 0.0 mm
08:07 7.2 °C 6.7 °C 1009.0 hPa WSW 8.7 km/h 13.7 km/h 97 % 0.3 mm
08:12 7.2 °C 6.7 °C 1009.0 hPa WSW 10.1 km/h 13.7 km/h 97 % 0.3 mm
08:17 7.2 °C 6.7 °C 1009.0 hPa WSW 7.9 km/h 11.9 km/h 97 % 0.3 mm
08:22 7.3 °C 6.8 °C 1009.0 hPa SW 7.6 km/h 11.9 km/h 97 % 0.3 mm
08:27 7.3 °C 6.8 °C 1009.0 hPa WSW 6.9 km/h 11.9 km/h 97 % 0.3 mm
08:32 7.3 °C 6.8 °C 1009.0 hPa SW 7.6 km/h 11.9 km/h 97 % 0.3 mm
08:37 7.3 °C 6.8 °C 1009.0 hPa SSW 10.1 km/h 13.0 km/h 97 % 0.3 mm
08:42 7.3 °C 7.1 °C 1009.0 hPa WSW 6.4 km/h 13.0 km/h 98 % 0.3 mm
08:47 7.3 °C 7.1 °C 1009.0 hPa SSW 6.4 km/h 12.2 km/h 98 % 0.3 mm
08:52 7.3 °C 7.1 °C 1010.0 hPa SW 5.8 km/h 9.3 km/h 98 % 0.3 mm
08:57 7.4 °C 7.2 °C 1010.0 hPa WSW 9.0 km/h 10.5 km/h 98 % 0.3 mm
09:07 7.6 °C 7.3 °C 1009.0 hPa WSW 6.1 km/h 11.6 km/h 98 % 0.0 mm
09:12 7.6 °C 7.3 °C 1009.0 hPa SW 5.8 km/h 11.6 km/h 98 % 0.0 mm
09:17 7.6 °C 7.3 °C 1009.0 hPa WSW 6.9 km/h 11.1 km/h 98 % 0.0 mm
09:22 7.7 °C 7.3 °C 1009.0 hPa SSW 7.9 km/h 11.1 km/h 98 % 0.0 mm
09:27 7.7 °C 7.3 °C 1009.0 hPa SW 7.9 km/h 10.5 km/h 98 % 0.0 mm
09:32 7.7 °C 7.4 °C 1009.0 hPa SSW 9.3 km/h 11.6 km/h 98 % 0.0 mm
09:37 7.8 °C 7.4 °C 1008.0 hPa SW 10.5 km/h 11.6 km/h 97 % 0.0 mm
09:42 7.8 °C 7.4 °C 1008.0 hPa WSW 13.7 km/h 13.7 km/h 97 % 0.0 mm
09:47 7.9 °C 7.5 °C 1008.0 hPa SW 8.7 km/h 13.7 km/h 97 % 0.0 mm
09:57 8.1 °C 7.6 °C 1009.0 hPa WSW 7.9 km/h 12.6 km/h 97 % 0.0 mm
10:02 8.1 °C 7.6 °C 1009.0 hPa WSW 6.4 km/h 12.2 km/h 97 % 0.0 mm
10:07 8.1 °C 7.6 °C 1009.0 hPa WSW 6.9 km/h 10.5 km/h 97 % 0.0 mm
10:12 8.1 °C 7.7 °C 1009.0 hPa WSW 8.7 km/h 10.5 km/h 97 % 0.0 mm
10:17 8.1 °C 7.7 °C 1009.0 hPa WSW 9.3 km/h 13.0 km/h 97 % 0.0 mm
10:22 8.2 °C 7.8 °C 1009.0 hPa West 7.9 km/h 13.0 km/h 97 % 0.0 mm
10:27 8.2 °C 7.8 °C 1009.0 hPa WSW 4.3 km/h 9.3 km/h 97 % 0.0 mm
10:32 8.2 °C 7.8 °C 1009.0 hPa Calm   8.7 km/h 97 % 0.0 mm
10:34 8.2 °C 7.8 °C 1009.0 hPa West 4.0 km/h 7.9 km/h 97 % 0.0 mm
10:39 8.3 °C 7.9 °C 1010.0 hPa Calm   6.1 km/h 97 % 0.0 mm
10:44 8.3 °C 7.9 °C 1010.0 hPa Calm   6.1 km/h 97 % 0.0 mm
10:49 8.4 °C 8.0 °C 1010.0 hPa Calm   5.0 km/h 97 % 0.0 mm
10:54 8.5 °C 8.1 °C 1010.0 hPa Calm   5.0 km/h 97 % 0.0 mm
10:59 8.5 °C 8.1 °C 1010.0 hPa NNW 8.7 km/h 8.7 km/h 97 % 0.0 mm
11:05 8.7 °C 8.3 °C 1010.0 hPa West 3.5 km/h 10.5 km/h 97 % 0.0 mm
11:10 8.7 °C 8.3 °C 1010.0 hPa NNE 6.9 km/h 11.6 km/h 97 % 0.0 mm
11:15 8.4 °C 8.0 °C 1010.0 hPa Calm   14.0 km/h 97 % 0.0 mm
11:20 8.3 °C 7.9 °C 1010.0 hPa WNW 11.6 km/h 14.0 km/h 97 % 0.0 mm
11:21 8.3 °C 7.9 °C 1010.0 hPa North 6.9 km/h 14.0 km/h 97 % 0.0 mm
11:26 8.2 °C 7.8 °C 1010.0 hPa NW 9.0 km/h 14.0 km/h 97 % 0.0 mm
11:31 8.2 °C 7.8 °C 1010.0 hPa Calm   14.0 km/h 97 % 0.0 mm
11:36 8.2 °C 7.8 °C 1010.0 hPa Calm   10.5 km/h 97 % 0.0 mm
11:41 8.2 °C 7.8 °C 1010.0 hPa NNW 6.4 km/h 9.7 km/h 97 % 0.0 mm
11:46 8.2 °C 7.8 °C 1010.0 hPa North 11.9 km/h 11.9 km/h 97 % 0.0 mm
11:51 8.2 °C 7.8 °C 1010.0 hPa NNW 5.5 km/h 11.9 km/h 97 % 0.0 mm
11:56 8.1 °C 7.7 °C 1010.0 hPa NNE 5.0 km/h 11.1 km/h 97 % 0.0 mm
12:01 8.1 °C 7.7 °C 1010.0 hPa WNW 4.7 km/h 9.0 km/h 97 % 0.0 mm
12:06 8.1 °C 7.7 °C 1010.0 hPa North 4.0 km/h 9.0 km/h 97 % 0.0 mm
12:11 8.1 °C 7.7 °C 1010.0 hPa NNE 5.5 km/h 8.7 km/h 97 % 0.0 mm
12:16 8.1 °C 7.7 °C 1010.0 hPa NNE 5.8 km/h 9.7 km/h 97 % 0.0 mm
12:26 8.1 °C 7.7 °C 1010.0 hPa NNW 9.3 km/h 10.1 km/h 97 % 0.0 mm
12:31 8.1 °C 7.6 °C 1010.0 hPa NNW 5.8 km/h 10.1 km/h 97 % 0.0 mm
12:36 8.1 °C 7.6 °C 1010.0 hPa North 4.0 km/h 10.1 km/h 97 % 0.0 mm
12:41 8.1 °C 7.6 °C 1011.1 hPa Calm   10.1 km/h 97 % 0.0 mm
12:46 8.1 °C 7.6 °C 1011.1 hPa NNW 7.9 km/h 10.1 km/h 97 % 0.0 mm
12:56 7.9 °C 7.5 °C 1011.1 hPa North 5.0 km/h 7.9 km/h 97 % 0.5 mm
13:01 7.9 °C 7.5 °C 1011.1 hPa NNE 6.1 km/h 10.1 km/h 97 % 0.5 mm
13:06 7.8 °C 7.4 °C 1011.1 hPa NNE 6.1 km/h 10.5 km/h 97 % 0.5 mm
13:12 7.7 °C 7.3 °C 1011.1 hPa North 5.5 km/h 10.5 km/h 97 % 0.5 mm
13:17 7.7 °C 7.3 °C 1011.1 hPa NW 5.8 km/h 10.5 km/h 97 % 0.5 mm
13:22 7.7 °C 7.3 °C 1011.1 hPa Calm   10.5 km/h 97 % 0.5 mm
13:27 7.7 °C 7.3 °C 1011.1 hPa NNW 4.7 km/h 9.0 km/h 97 % 0.5 mm
13:32 7.7 °C 7.2 °C 1011.1 hPa North 6.9 km/h 11.9 km/h 97 % 0.5 mm
13:37 7.6 °C 7.1 °C 1012.1 hPa NNW 4.3 km/h 11.9 km/h 97 % 0.5 mm
13:42 7.6 °C 7.1 °C 1012.1 hPa North 8.7 km/h 12.2 km/h 97 % 0.5 mm
13:47 7.4 °C 7.0 °C 1012.1 hPa North 8.7 km/h 13.0 km/h 97 % 0.0 mm
13:52 7.4 °C 7.0 °C 1011.1 hPa NNE 6.1 km/h 13.0 km/h 97 % 0.0 mm
13:57 7.3 °C 6.9 °C 1011.1 hPa NW 9.0 km/h 11.9 km/h 97 % 0.0 mm
14:02 7.3 °C 6.9 °C 1011.1 hPa Calm   10.5 km/h 97 % 0.0 mm
14:08 7.3 °C 6.9 °C 1011.1 hPa North 8.7 km/h 12.2 km/h 97 % 0.0 mm
14:13 7.3 °C 6.8 °C 1011.1 hPa North 5.8 km/h 12.2 km/h 97 % 0.0 mm
14:18 7.2 °C 6.7 °C 1011.1 hPa NNW 5.8 km/h 12.2 km/h 97 % 0.0 mm
14:23 7.2 °C 6.7 °C 1011.1 hPa NNW 5.0 km/h 16.3 km/h 97 % 0.0 mm
14:28 7.1 °C 6.6 °C 1011.1 hPa NW 6.9 km/h 16.3 km/h 97 % 0.0 mm
14:33 7.1 °C 6.6 °C 1011.1 hPa NNW 6.9 km/h 14.0 km/h 97 % 0.0 mm
14:38 7.2 °C 6.7 °C 1011.1 hPa WNW 4.3 km/h 9.0 km/h 97 % 0.0 mm
14:43 7.2 °C 6.7 °C 1011.1 hPa West 4.0 km/h 9.0 km/h 97 % 0.0 mm
14:48 7.3 °C 6.8 °C 1011.1 hPa Calm   5.5 km/h 97 % 0.0 mm
14:53 7.3 °C 7.1 °C 1011.1 hPa Calm   5.5 km/h 98 % 0.0 mm
14:58 7.3 °C 7.1 °C 1011.1 hPa Calm   6.1 km/h 98 % 0.0 mm
15:03 7.3 °C 7.1 °C 1011.1 hPa Calm   6.1 km/h 98 % 0.0 mm
15:08 7.3 °C 6.9 °C 1011.1 hPa Calm   5.5 km/h 97 % 0.0 mm
15:13 7.3 °C 6.8 °C 1011.1 hPa Calm   5.5 km/h 97 % 0.0 mm
15:18 7.3 °C 6.8 °C 1011.1 hPa WNW 4.3 km/h 6.9 km/h 97 % 0.0 mm
15:23 7.3 °C 6.8 °C 1011.1 hPa North 1.8 km/h 6.9 km/h 97 % 0.0 mm
15:28 7.3 °C 6.8 °C 1011.1 hPa South 3.5 km/h 6.1 km/h 97 % 0.0 mm
15:33 7.2 °C 6.7 °C 1011.1 hPa WNW 6.9 km/h 11.6 km/h 97 % 0.0 mm
15:43 7.3 °C 6.8 °C 1011.1 hPa Calm   6.9 km/h 97 % 0.0 mm
15:48 7.3 °C 6.9 °C 1011.1 hPa Calm   5.5 km/h 97 % 0.0 mm
15:53 7.3 °C 6.9 °C 1011.1 hPa Calm   5.0 km/h 97 % 0.0 mm
15:58 7.4 °C 7.0 °C 1011.1 hPa Calm   4.3 km/h 97 % 0.0 mm
16:03 7.4 °C 7.0 °C 1011.1 hPa WNW 5.8 km/h 5.8 km/h 97 % 0.0 mm
16:08 7.4 °C 7.0 °C 1011.1 hPa Calm   6.1 km/h 97 % 0.0 mm
16:13 7.4 °C 7.0 °C 1011.1 hPa NW 4.7 km/h 6.1 km/h 97 % 0.0 mm
16:18 7.4 °C 7.0 °C 1011.1 hPa WNW 3.5 km/h 5.8 km/h 97 % 0.0 mm
16:23 7.4 °C 7.0 °C 1011.1 hPa Calm   5.8 km/h 97 % 0.0 mm
16:28 7.4 °C 7.0 °C 1011.1 hPa Calm   5.0 km/h 97 % 0.0 mm
16:38 7.3 °C 6.9 °C 1011.1 hPa Calm     97 % 0.0 mm
16:39 7.3 °C 6.9 °C 1011.1 hPa Calm     97 % 0.0 mm
16:44 7.3 °C 6.9 °C 1011.1 hPa WNW 2.6 km/h 5.5 km/h 97 % 0.0 mm
16:49 7.3 °C 6.9 °C 1011.1 hPa West 4.7 km/h 5.5 km/h 97 % 0.0 mm
16:54 7.3 °C 6.8 °C 1011.1 hPa West 4.3 km/h 6.4 km/h 97 % 0.0 mm
16:59 7.3 °C 6.8 °C 1011.1 hPa Calm   7.9 km/h 97 % 0.0 mm
17:04 7.3 °C 6.8 °C 1011.1 hPa West 2.6 km/h 7.9 km/h 97 % 0.0 mm
17:12 7.2 °C 6.7 °C 1011.1 hPa West 1.8 km/h 5.5 km/h 97 % 0.0 mm
17:17 7.2 °C 6.7 °C 1011.1 hPa Calm   5.5 km/h 97 % 0.0 mm
17:18 7.2 °C 6.7 °C 1011.1 hPa Calm   5.5 km/h 97 % 0.0 mm
17:20 7.2 °C 6.7 °C 1011.1 hPa Calm   2.6 km/h 97 % 0.0 mm
17:22 7.2 °C 6.7 °C 1012.1 hPa WNW 2.1 km/h 2.6 km/h 97 % 0.0 mm
17:25 7.1 °C 6.6 °C 1012.1 hPa NNE 1.4 km/h 4.0 km/h 97 % 0.0 mm
17:30 7.1 °C 6.6 °C 1012.1 hPa Calm   4.0 km/h 97 % 0.0 mm
17:36 7.1 °C 6.6 °C 1012.1 hPa Calm   4.0 km/h 97 % 0.0 mm
17:41 6.9 °C 6.5 °C 1011.1 hPa NW 2.6 km/h 5.0 km/h 97 % 0.0 mm
17:46 6.9 °C 6.5 °C 1011.1 hPa Calm   5.0 km/h 97 % 0.0 mm
17:51 6.9 °C 6.5 °C 1011.1 hPa NNE 3.5 km/h 5.8 km/h 97 % 0.0 mm
18:01 6.9 °C 6.5 °C 1012.1 hPa North 6.4 km/h 8.7 km/h 97 % 0.0 mm
18:11 6.9 °C 6.5 °C 1012.1 hPa WNW 4.3 km/h 12.6 km/h 97 % 0.0 mm
18:16 6.8 °C 6.4 °C 1012.1 hPa NNE 5.5 km/h 11.6 km/h 97 % 0.0 mm
18:21 6.8 °C 6.4 °C 1012.1 hPa North 6.1 km/h 10.5 km/h 97 % 0.0 mm
18:26 6.8 °C 6.4 °C 1012.1 hPa North 4.3 km/h 10.1 km/h 97 % 0.0 mm
18:31 6.8 °C 6.4 °C 1012.1 hPa North 5.0 km/h 8.7 km/h 97 % 0.0 mm
18:36 6.8 °C 6.4 °C 1012.1 hPa NNE 3.2 km/h 9.0 km/h 97 % 0.0 mm
18:41 6.8 °C 6.3 °C 1013.1 hPa Calm   9.0 km/h 97 % 0.0 mm
18:46 6.8 °C 6.3 °C 1013.1 hPa Calm   5.5 km/h 97 % 0.0 mm
18:51 6.7 °C 6.2 °C 1013.1 hPa North 4.0 km/h 5.5 km/h 97 % 0.0 mm
18:56 6.7 °C 6.2 °C 1013.1 hPa North 2.1 km/h 5.8 km/h 97 % 0.0 mm
19:02 6.7 °C 6.2 °C 1013.1 hPa Calm   5.8 km/h 97 % 0.0 mm
19:07 6.7 °C 6.2 °C 1013.1 hPa Calm   4.3 km/h 97 % 0.0 mm
19:12 6.7 °C 6.2 °C 1013.1 hPa Calm   4.3 km/h 97 % 0.0 mm
19:17 6.7 °C 6.2 °C 1013.1 hPa Calm   4.0 km/h 97 % 0.0 mm
19:22 6.6 °C 6.1 °C 1012.1 hPa Calm     97 % 0.0 mm
19:27 6.6 °C 6.1 °C 1012.1 hPa Calm     97 % 0.0 mm
19:32 6.6 °C 6.1 °C 1012.1 hPa NNE 4.0 km/h 4.0 km/h 97 % 0.0 mm
19:37 6.6 °C 6.1 °C 1013.1 hPa Calm   4.0 km/h 97 % 0.0 mm
19:42 6.6 °C 6.1 °C 1013.1 hPa Calm   3.5 km/h 97 % 0.0 mm
19:47 6.6 °C 6.1 °C 1013.1 hPa Calm   4.3 km/h 97 % 0.0 mm
19:52 6.6 °C 6.1 °C 1013.1 hPa Calm   4.3 km/h 97 % 0.0 mm
19:57 6.6 °C 6.1 °C 1013.1 hPa Calm   3.5 km/h 97 % 0.0 mm
20:02 6.6 °C 6.1 °C 1013.1 hPa Calm   3.5 km/h 97 % 0.0 mm
20:12 6.4 °C 6.0 °C 1013.1 hPa Calm     97 % 0.0 mm
20:17 6.4 °C 5.9 °C 1013.1 hPa Calm     97 % 0.0 mm
20:22 6.4 °C 5.9 °C 1013.1 hPa Calm     97 % 0.0 mm
20:27 6.4 °C 5.9 °C 1013.1 hPa Calm   4.0 km/h 97 % 0.0 mm
20:32 6.4 °C 5.9 °C 1013.1 hPa Calm   4.0 km/h 97 % 0.0 mm
20:37 6.4 °C 5.9 °C 1013.1 hPa Calm     97 % 0.0 mm
20:42 6.3 °C 5.8 °C 1013.1 hPa Calm     97 % 0.0 mm
20:47 6.3 °C 5.8 °C 1013.1 hPa Calm     97 % 0.0 mm
20:52 6.3 °C 5.8 °C 1013.1 hPa Calm     97 % 0.0 mm
20:57 6.3 °C 5.8 °C 1013.1 hPa Calm     97 % 0.0 mm
21:02 6.3 °C 5.8 °C 1013.1 hPa Calm   3.5 km/h 97 % 0.0 mm
21:07 6.2 °C 5.7 °C 1013.1 hPa ENE 1.8 km/h 5.5 km/h 97 % 0.0 mm
21:12 6.2 °C 5.7 °C 1013.1 hPa Calm   5.5 km/h 97 % 0.0 mm
21:17 6.2 °C 5.7 °C 1013.1 hPa Calm   4.0 km/h 97 % 0.0 mm
21:22 6.2 °C 5.7 °C 1013.1 hPa Calm   5.0 km/h 97 % 0.0 mm
21:27 6.2 °C 5.7 °C 1013.1 hPa Calm   5.0 km/h 97 % 0.0 mm
21:32 6.2 °C 5.7 °C 1013.1 hPa Calm   4.0 km/h 97 % 0.0 mm
21:37 6.2 °C 5.7 °C 1013.1 hPa Calm     97 % 0.0 mm
21:42 6.2 °C 5.7 °C 1013.1 hPa Calm   4.3 km/h 97 % 0.0 mm
21:47 6.1 °C 5.6 °C 1013.1 hPa Calm   4.3 km/h 97 % 0.0 mm
21:52 6.1 °C 5.6 °C 1013.1 hPa Calm     97 % 0.0 mm
21:57 6.1 °C 5.6 °C 1013.1 hPa Calm     97 % 0.0 mm
22:02 6.1 °C 5.6 °C 1013.1 hPa ENE 6.9 km/h 6.9 km/h 97 % 0.0 mm
22:07 6.1 °C 5.6 °C 1013.1 hPa Calm   6.9 km/h 97 % 0.0 mm
22:12 6.0 °C 5.6 °C 1013.1 hPa ENE 4.3 km/h 6.9 km/h 97 % 0.0 mm
22:17 6.0 °C 5.6 °C 1013.1 hPa ENE 4.7 km/h 6.1 km/h 97 % 0.0 mm
22:22 6.0 °C 5.6 °C 1013.1 hPa East 2.6 km/h 6.1 km/h 97 % 0.0 mm
22:27 6.0 °C 5.6 °C 1013.1 hPa East 4.7 km/h 6.1 km/h 97 % 0.0 mm
22:32 6.0 °C 5.6 °C 1013.1 hPa Calm   5.0 km/h 97 % 0.0 mm
22:37 6.0 °C 5.6 °C 1013.1 hPa Calm   4.7 km/h 97 % 0.0 mm
22:42 5.9 °C 5.4 °C 1013.1 hPa Calm   5.5 km/h 97 % 0.0 mm
22:47 5.9 °C 5.4 °C 1013.1 hPa Calm   5.5 km/h 97 % 0.0 mm
22:52 5.9 °C 5.4 °C 1013.1 hPa Calm   3.5 km/h 97 % 0.0 mm
22:57 5.9 °C 5.4 °C 1013.1 hPa Calm   3.5 km/h 97 % 0.0 mm
23:02 5.9 °C 5.4 °C 1013.1 hPa Calm     97 % 0.0 mm
23:07 5.8 °C 5.5 °C 1013.1 hPa Calm   1.8 km/h 98 % 0.0 mm
23:12 5.8 °C 5.5 °C 1013.1 hPa Calm   1.8 km/h 98 % 0.0 mm
23:17 5.8 °C 5.5 °C 1013.1 hPa Calm     98 % 0.0 mm
23:22 5.7 °C 5.4 °C 1013.1 hPa Calm     98 % 0.0 mm
23:27 5.7 °C 5.4 °C 1013.1 hPa Calm   2.1 km/h 98 % 0.0 mm
23:32 5.7 °C 5.4 °C 1013.1 hPa Calm   2.1 km/h 98 % 0.0 mm
23:37 5.7 °C 5.4 °C 1013.1 hPa Calm   2.1 km/h 98 % 0.0 mm
23:42 5.7 °C 5.4 °C 1013.1 hPa Calm     98 % 0.0 mm
23:47 5.7 °C 5.4 °C 1013.1 hPa Calm     98 % 0.0 mm
23:52 5.7 °C 5.4 °C 1013.1 hPa ENE 5.8 km/h 7.9 km/h 98 % 0.0 mm
23:57 5.7 °C 5.4 °C 1013.1 hPa ENE 4.7 km/h 7.9 km/h 98 % 0.0 mm
Le Gheer Warneton
Courtoisie de Weather Underground - 2.25 mb

Mise a jour : 18/12/2017 17:30:12
Généré par Cumulus 1.9.4 (1099)